Flight Track Log - Related Links

Times and Time Zones

All times are in EDT time to prevent confusion due to time zone crossing. See the HL-7403 flight status page for this flight to view local times or setup timezone preferences in your user account.

Time Position Orientation Groundspeed Altitude Reporting Facility
EDT Latitude Longitude Course Direction KTS MPH feet Rate Location/Type
Tue 11:24:07 AM 61.2140 -150.0230 344° North 175 201 1,000  Level FlightAware ADS-B
Tue 11:24:22 AM 61.2240 -150.0390 322° Northwest 181 208 1,500 1,800 Climbing FlightAware ADS-B
Tue 11:24:37 AM 61.2330 -150.0570 316° Northwest 184 212 1,900 1,500 Climbing FlightAware ADS-B
Tue 11:25:02 AM 61.2470 -150.0910 311° West 195 224 2,500 1,500 Climbing FlightAware ADS-B
Tue 11:25:17 AM 61.2490 -150.1190 278° West 201 231 2,900 1,600 Climbing FlightAware ADS-B
Tue 11:25:32 AM 61.2500 -150.1480 274° West 202 232 3,300 900 Climbing FlightAware ADS-B
Tue 11:25:57 AM 61.2520 -150.1990 275° West 229 264 3,500 918 Climbing FlightAware ADS-B
Tue 11:26:57 AM 61.2550 -150.3440 273° West 274 315 4,600 1,533 Climbing FlightAware ADS-B
Tue 11:27:27 AM 61.2570 -150.4230 273° West 277 319 5,800 2,400 Climbing FlightAware ADS-B
Tue 11:27:52 AM 61.2590 -150.4900 274° West 281 323 6,800 2,400 Climbing FlightAware ADS-B
Tue 11:28:22 AM 61.2610 -150.5720 273° West 285 328 8,000 2,533 Climbing FlightAware ADS-B
Tue 11:28:37 AM 61.2610 -150.6150 270° West 286 329 8,700 2,182 Climbing FlightAware ADS-B
Tue 11:29:17 AM 61.2640 -150.7240 273° West 295 339 10,000 1,425 Climbing FlightAware ADS-B
Tue 11:29:57 AM 61.2660 -150.8410 272° West 328 377 10,600 988 Climbing FlightAware ADS-B
Tue 11:30:42 AM 61.2690 -150.9880 272° West 363 418 11,400 1,467 Climbing FlightAware ADS-B
Tue 11:31:27 AM 61.2710 -151.1500 272° West 382 440 12,800 2,188 Climbing FlightAware ADS-B
Tue 11:32:07 AM 61.2740 -151.3050 272° West 388 447 14,500 2,400 Climbing FlightAware ADS-B
Tue 11:32:47 AM 61.2760 -151.4510 272° West 394 453 16,000 2,325 Climbing FlightAware ADS-B
Tue 11:33:27 AM 61.2790 -151.6100 272° West 399 459 17,600 2,118 Climbing FlightAware ADS-B
Tue 11:34:12 AM 61.2810 -151.7800 271° West 406 467 19,000 1,933 Climbing FlightAware ADS-B
Tue 11:34:57 AM 61.2830 -151.9530 271° West 412 474 20,500 1,906 Climbing FlightAware ADS-B
Tue 11:35:37 AM 61.2840 -152.1120 271° West 417 480 21,700 1,765 Climbing FlightAware ADS-B
Tue 11:36:22 AM 61.2850 -152.2930 271° West 422 486 23,000 1,624 Climbing FlightAware ADS-B
Tue 11:37:02 AM 61.2860 -152.4640 271° West 427 491 24,000 1,500 Climbing FlightAware ADS-B
Tue 11:37:42 AM 61.2860 -152.6290 270° West 430 495 25,000 1,341 Climbing FlightAware ADS-B
Tue 11:38:27 AM 61.2860 -152.8130 270° West 440 506 25,900 1,200 Climbing FlightAware ADS-B
Tue 11:39:02 AM 61.2860 -152.9560 270° West 443 510 26,600 1,200 Climbing FlightAware ADS-B
Tue 11:39:47 AM 61.2860 -153.1490 270° West 449 517 27,500 1,341 Climbing FlightAware ADS-B
Tue 11:40:27 AM 61.2850 -153.3250 269° West 447 514 28,500 1,482 Climbing FlightAware ADS-B
Tue 11:41:12 AM 61.2850 -153.5180 270° West 445 512 29,600 1,200 Climbing FlightAware ADS-B
Tue 11:41:57 AM 61.2840 -153.7100 269° West 449 517 30,300 1,059 Climbing FlightAware ADS-B
Tue 11:42:37 AM 61.2820 -153.8870 269° West 450 518 31,100 1,120 Climbing FlightAware ADS-B
Tue 11:43:12 AM 61.2810 -154.0340 269° West 452 520 31,700 635 Climbing FlightAware ADS-B
Tue 11:44:02 AM 61.2790 -154.2560 269° West 455 524 32,000 138 Climbing FlightAware ADS-B
Tue 11:45:22 AM 61.2760 -154.5750 269° West 453 521 32,000  Level FlightAware ADS-B
Tue 11:46:42 AM 61.2710 -154.9320 268° West 452 520 32,000  Level FlightAware ADS-B
Tue 11:47:27 AM 61.2680 -155.1280 268° West 452 520 32,000  Level FlightAware ADS-B
Tue 11:48:07 AM 61.2670 -155.2760 269° West 452 520 32,000  Level FlightAware ADS-B
Tue 11:48:57 AM 61.2650 -155.4610 269° West 452 520 32,000  Level FlightAware ADS-B
Tue 11:49:37 AM 61.2640 -155.6090 269° West 452 520 32,000  Level FlightAware ADS-B
Tue 11:50:17 AM 61.2630 -155.7570 269° West 452 520 32,000  Level FlightAware ADS-B
Tue 11:50:57 AM 61.2620 -155.9050 269° West 452 520 32,000  Level FlightAware ADS-B
Tue 11:51:37 AM 61.2600 -156.0520 268° West 452 520 32,000  Level FlightAware ADS-B
Tue 11:52:27 AM 61.2590 -156.2370 269° West 452 520 32,000  Level FlightAware ADS-B
Tue 11:53:07 AM 61.2570 -156.3850 268° West 452 520 32,000  Level FlightAware ADS-B
Tue 11:53:47 AM 61.2560 -156.5330 269° West 452 520 32,000  Level FlightAware ADS-B
Tue 11:54:27 AM 61.2550 -156.6810 269° West 452 520 32,000  Level FlightAware ADS-B
Tue 11:55:07 AM 61.2540 -156.8290 269° West 452 520 32,000  Level FlightAware ADS-B
Tue 11:55:57 AM 61.2520 -157.0130 269° West 452 520 32,000  Level FlightAware ADS-B
Tue 11:56:37 AM 61.2510 -157.1610 269° West 452 520 32,000  Level FlightAware ADS-B
Tue 11:57:25 AM 61.2500 -157.6500 269° West 440 506 32,000  Level Anchorage Center
Tue 11:58:25 AM 61.2333 -157.9167 263° West 440 506 32,000  Level Anchorage Center
Tue 11:59:25 AM 61.2333 -158.1667 270° West 440 506 32,000  Level Anchorage Center
Tue 12:00:25 PM 61.2333 -158.4167 270° West 440 506 32,000  Level Anchorage Center
Tue 12:01:25 PM 61.2333 -158.6667 270° West 440 506 32,000  Level Anchorage Center
Tue 12:02:25 PM 61.2333 -158.9333 270° West 430 495 32,000  Level Anchorage Center
Tue 12:03:25 PM 61.2333 -159.1833 270° West 440 506 32,000  Level Anchorage Center
Tue 12:04:26 PM 61.2167 -159.4333 262° West 430 495 32,000  Level Anchorage Center
Tue 12:05:26 PM 61.2167 -159.6833 270° West 430 495 32,000  Level Anchorage Center
Tue 12:06:26 PM 61.2167 -159.9500 270° West 440 506 32,000  Level Anchorage Center
Tue 12:07:26 PM 61.2000 -160.2500 264° West 430 495 32,000  Level Anchorage Center
Tue 12:08:26 PM 61.2000 -160.5000 270° West 430 495 32,000  Level Anchorage Center
Tue 12:09:26 PM 61.2000 -160.7167 270° West 430 495 32,000  Level Anchorage Center
Tue 12:10:26 PM 61.1833 -160.9667 262° West 430 495 32,000  Level Anchorage Center
Tue 12:11:27 PM 61.1833 -161.2167 270° West 430 495 32,000  Level Anchorage Center
Tue 12:12:27 PM 61.1667 -161.4667 262° West 430 495 32,000  Level Anchorage Center
Tue 12:13:26 PM 61.1667 -161.7167 270° West 430 495 32,000  Level Anchorage Center
Tue 12:14:27 PM 61.1500 -161.9667 262° West 430 495 32,000 149 Level Anchorage Center
Tue 12:15:27 PM 61.1500 -162.2167 270° West 430 495 32,300 500 Climbing Anchorage Center
Tue 12:16:27 PM 61.1333 -162.4667 262° West 440 506 33,000 350 Climbing Anchorage Center
Tue 12:17:27 PM 61.1167 -162.7167 262° West 430 495 33,000  Level Anchorage Center
Tue 12:18:27 PM 61.1167 -162.9667 270° West 430 495 33,000  Level Anchorage Center
Tue 12:19:27 PM 61.0833 -163.2000 254° West 430 495 33,000  Level Anchorage Center
Tue 12:20:27 PM 61.0500 -163.4500 255° West 440 506 33,000  Level Anchorage Center
Tue 12:21:27 PM 61.0167 -163.7000 255° West 440 506 33,000  Level Anchorage Center
Tue 12:22:27 PM 60.9667 -163.9333 246° West 440 506 33,000  Level Anchorage Center
Tue 12:23:27 PM 60.9333 -164.1833 255° West 440 506 33,000  Level Anchorage Center
Tue 12:24:27 PM 60.9000 -164.4333 255° West 440 506 33,000  Level Anchorage Center
Tue 12:25:27 PM 60.8667 -164.6667 254° West 430 495 33,000  Level Anchorage Center
Tue 12:26:27 PM 60.8333 -164.9000 254° West 440 506 33,000  Level Anchorage Center
Tue 12:27:28 PM 60.7833 -165.1500 248° West 430 495 33,000  Level Anchorage Center
Tue 12:28:28 PM 60.7500 -165.3833 254° West 430 495 33,000  Level Anchorage Center
Tue 12:29:28 PM 60.7167 -165.6167 254° West 440 506 33,000  Level Anchorage Center
Tue 12:30:41 PM 60.6667 -165.9000 250° West 430 495 33,000  Level Anchorage Center
Tue 12:31:41 PM 60.6333 -166.1500 255° West 440 506 33,000  Level Anchorage Center
Tue 12:32:41 PM 60.5833 -166.3833 247° West 430 495 33,000  Level Anchorage Center
Tue 12:33:41 PM 60.5500 -166.6167 254° West 430 495 33,000  Level Anchorage Center
Tue 12:34:42 PM 60.5167 -166.8500 254° West 430 495 33,000  Level Anchorage Center
Tue 12:35:41 PM 60.4667 -167.0833 247° West 430 495 33,000  Level Anchorage Center
Tue 12:36:42 PM 60.4333 -167.3167 254° West 430 495 33,000  Level Anchorage Center
Tue 12:37:41 PM 60.3833 -167.5333 245° Southwest 430 495 33,000  Level Anchorage Center
Tue 12:38:42 PM 60.3500 -167.7833 255° West 440 506 33,000  Level Anchorage Center
Tue 12:39:42 PM 60.3000 -168.0000 245° Southwest 430 495 33,000  Level Anchorage Center
Tue 12:40:42 PM 60.2667 -168.2333 254° West 430 495 33,000  Level Anchorage Center
Tue 12:41:42 PM 60.2167 -168.4500 245° Southwest 420 483 33,000  Level Anchorage Center
Tue 12:42:42 PM 60.1833 -168.6667 253° West 420 483 33,000  Level Anchorage Center
Tue 12:43:42 PM 60.1333 -168.9000 247° West 420 483 33,000  Level Anchorage Center
Tue 12:44:42 PM 60.1000 -169.1167 253° West 420 483 33,000  Level Anchorage Center
Tue 12:45:42 PM 60.0500 -169.3500 247° West 430 495 33,000  Level Anchorage Center
Tue 12:46:42 PM 60.0000 -169.5667 245° Southwest 430 495 33,000  Level Anchorage Center
Tue 12:47:42 PM 59.9667 -169.7833 253° West 430 495 33,000  Level Anchorage Center
Tue 12:48:42 PM 59.9167 -170.0167 247° West 430 495 33,000  Level Anchorage Center
Tue 12:49:43 PM 59.8833 -170.2333 253° West 430 495 33,000  Level Anchorage Center
Tue 12:50:43 PM 59.8333 -170.4333 244° Southwest 430 495 33,000  Level Anchorage Center
Tue 12:51:43 PM 59.8000 -170.6500 253° West 430 495 33,000  Level Anchorage Center
Tue 12:52:42 PM 59.7500 -170.8833 247° West 440 506 33,000  Level Anchorage Center
Tue 12:53:43 PM 59.7000 -171.1167 247° West 440 506 33,000  Level Anchorage Center
Tue 12:54:43 PM 59.6500 -171.3333 246° West 430 495 33,000  Level Anchorage Center
Tue 12:55:43 PM 59.6000 -171.5500 246° West 430 495 33,000  Level Anchorage Center
Tue 12:56:43 PM 59.5500 -171.7833 247° West 440 506 33,000  Level Anchorage Center
Tue 12:57:43 PM 59.5000 -172.0000 246° West 430 495 33,000  Level Anchorage Center
Tue 12:58:43 PM 59.4667 -172.2333 254° West 440 506 33,000  Level Anchorage Center
Tue 12:59:43 PM 59.4167 -172.4500 246° West 440 506 33,000  Level Anchorage Center
Tue 01:00:43 PM 59.3667 -172.6833 247° West 440 506 33,000  Level Anchorage Center
Tue 01:01:43 PM 59.3167 -172.9000 246° West 440 506 33,000  Level Anchorage Center
Tue 01:02:43 PM 59.2833 -173.1333 254° West 440 506 33,000  Level Anchorage Center
Tue 01:03:43 PM 59.2333 -173.3500 246° West 440 506 33,000  Level Anchorage Center
Tue 01:04:43 PM 59.1833 -173.5833 247° West 440 506 33,000  Level Anchorage Center
Tue 01:05:44 PM 59.1333 -173.8000 246° West 440 506 33,000  Level Anchorage Center
Tue 01:06:43 PM 59.0833 -174.0167 246° West 440 506 33,000  Level Anchorage Center
Tue 01:07:44 PM 59.0333 -174.2500 247° West 440 506 33,000  Level Anchorage Center
Tue 01:08:43 PM 58.9833 -174.4667 246° West 450 518 33,000  Level Anchorage Center
Tue 01:09:44 PM 58.9333 -174.6833 246° West 440 506 33,000  Level Anchorage Center
Tue 01:10:43 PM 58.8833 -174.9167 248° West 460 529 33,000  Level Anchorage Center
Tue 01:11:44 PM 58.8333 -175.1333 246° West 440 506 33,000  Level Anchorage Center
Tue 01:12:44 PM 58.7833 -175.3500 246° West 440 506 33,000  Level Anchorage Center
Tue 01:13:44 PM 58.7333 -175.5833 248° West 450 518 33,000  Level Anchorage Center
Tue 01:14:44 PM 58.6833 -175.8000 246° West 450 518 33,000  Level Anchorage Center
Tue 01:15:44 PM 58.6333 -176.0167 246° West 470 541 33,000  Level Anchorage Center
Tue 01:16:44 PM 58.5833 -176.2500 248° West 460 529 33,000  Level Anchorage Center
Tue 01:17:44 PM 58.5167 -176.4667 240° Southwest 450 518 33,000  Level Anchorage Center
Tue 01:18:44 PM 58.4667 -176.6833 246° West 440 506 33,000  Level Anchorage Center
Tue 01:19:44 PM 58.4167 -176.9000 246° West 450 518 33,000  Level Anchorage Center
Tue 01:20:44 PM 58.3833 -177.1000 252° West 410 472 33,000  Level Anchorage Center
Tue 01:21:44 PM 58.3167 -177.3167 240° Southwest 450 518 33,000  Level Anchorage Center
Tue 01:23:00 PM 58.2512 -177.5786 245° Southwest  Level FlightAware Approximate
Tue 01:30:00 PM 57.8797 -179.0089 244° Southwest  Level FlightAware Approximate
Tue 01:31:00 PM 57.8253 -179.2108 243° Southwest  Level FlightAware Approximate
Tue 01:32:00 PM 57.7706 -179.4121 243° Southwest  Level FlightAware Approximate
Tue 01:33:00 PM 57.7156 -179.6128 243° Southwest  Level FlightAware Approximate
Tue 01:34:00 PM 57.6603 -179.8128 243° Southwest  Level FlightAware Approximate
Tue 01:35:00 PM 57.6046 179.9877 243° Southwest  Level FlightAware Approximate
Tue 01:36:00 PM 57.5487 179.7889 242° Southwest  Level FlightAware Approximate
Tue 01:37:00 PM 57.4924 179.5907 242° Southwest  Level FlightAware Approximate
Tue 01:38:00 PM 57.4358 179.3930 242° Southwest  Level FlightAware Approximate
Tue 01:39:00 PM 57.3789 179.1960 242° Southwest  Level FlightAware Approximate
Tue 01:40:00 PM 57.3217 178.9996 242° Southwest  Level FlightAware Approximate
Tue 01:41:00 PM 57.2642 178.8039 242° Southwest  Level FlightAware Approximate
Tue 01:42:00 PM 57.2064 178.6087 241° Southwest  Level FlightAware Approximate
Tue 01:43:00 PM 57.1483 178.4141 241° Southwest  Level FlightAware Approximate
Tue 01:44:00 PM 57.0899 178.2202 241° Southwest  Level FlightAware Approximate
Tue 01:45:00 PM 57.0312 178.0269 241° Southwest  Level FlightAware Approximate
Tue 01:46:00 PM 56.9722 177.8341 241° Southwest  Level FlightAware Approximate
Tue 01:47:00 PM 56.9129 177.6420 241° Southwest  Level FlightAware Approximate
Tue 01:48:00 PM 56.8534 177.4505 240° Southwest  Level FlightAware Approximate
Tue 01:49:00 PM 56.7934 177.2597 240° Southwest  Level FlightAware Approximate
Tue 01:50:00 PM 56.7329 177.0698 240° Southwest  Level FlightAware Approximate
Tue 01:51:00 PM 56.6721 176.8804 240° Southwest  Level FlightAware Approximate
Tue 01:52:00 PM 56.6111 176.6917 240° Southwest  Level FlightAware Approximate
Tue 01:53:00 PM 56.5498 176.5036 239° Southwest  Level FlightAware Approximate
Tue 01:54:00 PM 56.4881 176.3161 239° Southwest  Level FlightAware Approximate
Tue 01:55:00 PM 56.4262 176.1292 239° Southwest  Level FlightAware Approximate
Tue 01:56:00 PM 56.3641 175.9429 239° Southwest  Level FlightAware Approximate
Tue 01:57:00 PM 56.3016 175.7572 239° Southwest  Level FlightAware Approximate
Tue 01:57:56 PM 56.0500 175.0000 238° Southwest 540 621 33,000  Level Anchorage Center
Tue 01:58:00 PM 56.2389 175.5721 239° Southwest  Level FlightAware Approximate
Tue 01:59:00 PM 56.1759 175.3876 239° Southwest  Level FlightAware Approximate
Tue 02:00:00 PM 56.1126 175.2038 238° Southwest  Level FlightAware Approximate
Tue 02:00:00 PM 55.9826 174.8088 238° Southwest  Level FlightAware Approximate
Tue 02:01:00 PM 56.0490 175.0205 238° Southwest  Level FlightAware Approximate
Tue 02:01:16 PM 55.8000 174.3000 238° Southwest 540 621 33,000  Level Anchorage Center
Tue 02:02:00 PM 55.9852 174.8378 238° Southwest  Level FlightAware Approximate
Tue 02:02:17 PM 55.7333 174.1333 235° Southwest 500 575 33,000  Level Anchorage Center
Tue 02:03:00 PM 55.9211 174.6558 238° Southwest  Level FlightAware Approximate
Tue 02:03:17 PM 55.6500 173.9167 236° Southwest 490 564 33,000  Level Anchorage Center
Tue 02:04:17 PM 55.5833 173.7333 237° Southwest 490 564 33,000  Level Anchorage Center
Tue 02:05:17 PM 55.5000 173.5167 236° Southwest 500 575 33,000  Level Anchorage Center
Tue 02:06:17 PM 55.4167 173.2833 238° Southwest 500 575 33,000  Level Anchorage Center
Tue 02:07:17 PM 55.3500 173.1167 235° Southwest 500 575 33,000  Level Anchorage Center
Tue 02:08:17 PM 55.2667 172.8833 238° Southwest 510 587 33,000  Level Anchorage Center
Tue 02:09:17 PM 55.2000 172.7000 238° Southwest 510 587 33,000  Level Anchorage Center
Tue 02:10:17 PM 55.1167 172.4833 236° Southwest 500 575 33,000  Level Anchorage Center
Tue 02:11:17 PM 55.0500 172.3167 235° Southwest 500 575 33,000  Level Anchorage Center
Tue 02:12:17 PM 54.9667 172.0833 238° Southwest 500 575 33,000  Level Anchorage Center
Tue 02:13:17 PM 54.8833 171.8667 236° Southwest 500 575 33,000  Level Anchorage Center
Tue 02:14:17 PM 54.8000 171.7000 229° Southwest 510 587 33,000  Level Anchorage Center
Tue 02:15:18 PM 54.7167 171.4833 236° Southwest 510 587 33,000  Level Anchorage Center
Tue 02:16:17 PM 54.6500 171.3000 238° Southwest 510 587 33,000  Level Anchorage Center
Tue 02:17:18 PM 54.5500 171.0833 232° Southwest 520 598 33,000  Level Anchorage Center
Tue 02:18:17 PM 54.4833 170.9167 235° Southwest 510 587 33,000  Level Anchorage Center
Tue 02:19:18 PM 54.3833 170.7000 232° Southwest 510 587 33,000  Level Anchorage Center
Tue 02:20:18 PM 54.3167 170.5333 236° Southwest 510 587 33,000  Level Anchorage Center
Tue 02:21:18 PM 54.2333 170.3333 235° Southwest 510 587 33,000  Level Anchorage Center
Tue 02:22:18 PM 54.1333 170.1167 232° Southwest 490 564 33,000  Level Anchorage Center
Tue 02:23:18 PM 54.0667 169.9667 233° Southwest 490 564 33,000  Level Anchorage Center
Tue 02:24:18 PM 53.9667 169.7500 232° Southwest 500 575 33,000  Level Anchorage Center
Tue 02:25:18 PM 53.9000 169.6000 233° Southwest 480 552 33,000  Level Anchorage Center
Tue 02:26:18 PM 53.8167 169.4000 235° Southwest 500 575 33,000  Level Anchorage Center
Tue 02:27:18 PM 53.7500 169.2333 236° Southwest 490 564 33,000  Level Anchorage Center
Tue 02:28:18 PM 53.6667 169.0333 235° Southwest 480 552 33,000 Level Anchorage Center
Tue 02:30:00 PM 53.5677 168.7334 241° Southwest  Level FlightAware Approximate
Tue 02:37:00 PM 53.1482 167.5175 240° Southwest  Level FlightAware Approximate
Tue 02:38:00 PM 53.0869 167.3462 239° Southwest  Level FlightAware Approximate
Tue 02:39:00 PM 53.0253 167.1753 239° Southwest  Level FlightAware Approximate
Tue 02:40:00 PM 52.9635 167.0050 239° Southwest  Level FlightAware Approximate
Tue 02:41:00 PM 52.9014 166.8351 239° Southwest  Level FlightAware Approximate
Tue 02:42:00 PM 52.8391 166.6657 239° Southwest  Level FlightAware Approximate
Tue 02:43:00 PM 52.7765 166.4968 239° Southwest  Level FlightAware Approximate
Tue 02:44:00 PM 52.7137 166.3284 238° Southwest  Level FlightAware Approximate
Tue 02:45:00 PM 52.6507 166.1605 238° Southwest  Level FlightAware Approximate
Tue 02:46:00 PM 52.5874 165.9930 238° Southwest  Level FlightAware Approximate
Tue 02:47:00 PM 52.5239 165.8261 238° Southwest  Level FlightAware Approximate
Tue 02:48:00 PM 52.4601 165.6596 238° Southwest  Level FlightAware Approximate
Tue 02:49:00 PM 52.3961 165.4936 238° Southwest  Level FlightAware Approximate
Tue 02:50:00 PM 52.3319 165.3281 238° Southwest  Level FlightAware Approximate
Tue 02:51:00 PM 52.2675 165.1631 238° Southwest  Level FlightAware Approximate
Tue 02:52:00 PM 52.2028 164.9985 237° Southwest  Level FlightAware Approximate
Tue 02:53:00 PM 52.1379 164.8345 237° Southwest  Level FlightAware Approximate
Tue 02:54:00 PM 52.0728 164.6709 237° Southwest  Level FlightAware Approximate
Tue 02:55:00 PM 52.0075 164.5077 237° Southwest  Level FlightAware Approximate
Tue 02:56:00 PM 51.9419 164.3451 237° Southwest  Level FlightAware Approximate
Tue 02:57:00 PM 51.8761 164.1829 237° Southwest  Level FlightAware Approximate
Tue 02:58:00 PM 51.8101 164.0213 237° Southwest  Level FlightAware Approximate
Tue 02:59:00 PM 51.7438 163.8600 236° Southwest  Level FlightAware Approximate
Tue 03:00:00 PM 51.6774 163.6993 236° Southwest  Level FlightAware Approximate
Tue 03:01:00 PM 51.6107 163.5391 236° Southwest  Level FlightAware Approximate
Tue 03:02:00 PM 51.5437 163.3794 236° Southwest  Level FlightAware Approximate
Tue 03:03:00 PM 51.4765 163.2201 236° Southwest  Level FlightAware Approximate
Tue 03:04:00 PM 51.4091 163.0614 236° Southwest  Level FlightAware Approximate
Tue 03:05:00 PM 51.3414 162.9031 236° Southwest  Level FlightAware Approximate
Tue 03:06:00 PM 51.2736 162.7452 236° Southwest  Level FlightAware Approximate
Tue 03:07:00 PM 51.2056 162.5879 235° Southwest  Level FlightAware Approximate
Tue 03:08:00 PM 51.1373 162.4310 235° Southwest  Level FlightAware Approximate
Tue 03:09:00 PM 51.0688 162.2745 235° Southwest  Level FlightAware Approximate
Tue 03:10:00 PM 51.0001 162.1185 235° Southwest  Level FlightAware Approximate
Tue 03:11:00 PM 50.9313 161.9630 235° Southwest  Level FlightAware Approximate
Tue 03:12:00 PM 50.8622 161.8080 235° Southwest  Level FlightAware Approximate
Tue 03:13:00 PM 50.7929 161.6534 235° Southwest  Level FlightAware Approximate
Tue 03:14:00 PM 50.7234 161.4993 235° Southwest  Level FlightAware Approximate
Tue 03:15:00 PM 50.6537 161.3456 234° Southwest  Level FlightAware Approximate
Tue 03:16:00 PM 50.5838 161.1924 234° Southwest  Level FlightAware Approximate
Tue 03:17:00 PM 50.5137 161.0396 234° Southwest  Level FlightAware Approximate
Tue 03:18:00 PM 50.4434 160.8873 234° Southwest  Level FlightAware Approximate
Tue 03:19:00 PM 50.3729 160.7354 234° Southwest  Level FlightAware Approximate
Tue 03:20:00 PM 50.3022 160.5840 234° Southwest  Level FlightAware Approximate
Tue 03:21:00 PM 50.2313 160.4330 234° Southwest  Level FlightAware Approximate
Tue 03:22:00 PM 50.1605 160.2822 234° Southwest  Level FlightAware Approximate
Tue 03:23:00 PM 50.0898 160.1314 234° Southwest  Level FlightAware Approximate
Tue 03:24:00 PM 50.0189 159.9812 234° Southwest  Level FlightAware Approximate
Tue 03:25:00 PM 49.9478 159.8313 234° Southwest  Level FlightAware Approximate
Tue 03:26:00 PM 49.8765 159.6819 234° Southwest  Level FlightAware Approximate
Tue 03:27:00 PM 49.8050 159.5330 233° Southwest  Level FlightAware Approximate
Tue 03:28:00 PM 49.7334 159.3845 233° Southwest  Level FlightAware Approximate
Tue 03:29:00 PM 49.6610 159.2540 233° Southwest  Level FlightAware Approximate
Tue 03:30:00 PM 49.5884 159.1070 233° Southwest  Level FlightAware Approximate
Tue 03:31:00 PM 49.5157 158.9604 233° Southwest  Level FlightAware Approximate
Tue 03:32:00 PM 49.4427 158.8143 233° Southwest  Level FlightAware Approximate
Tue 03:33:00 PM 49.3696 158.6685 232° Southwest  Level FlightAware Approximate
Tue 03:34:00 PM 49.2963 158.5233 232° Southwest  Level FlightAware Approximate
Tue 03:35:00 PM 49.2228 158.3784 232° Southwest  Level FlightAware Approximate
Tue 03:36:00 PM 49.1491 158.2340 232° Southwest  Level FlightAware Approximate
Tue 03:37:00 PM 49.0753 158.0900 232° Southwest  Level FlightAware Approximate
Tue 03:38:00 PM 49.0012 157.9465 232° Southwest  Level FlightAware Approximate
Tue 03:39:00 PM 48.9270 157.8033 232° Southwest  Level FlightAware Approximate
Tue 03:40:00 PM 48.8526 157.6606 232° Southwest  Level FlightAware Approximate
Tue 03:41:00 PM 48.7781 157.5184 232° Southwest  Level FlightAware Approximate
Tue 03:42:00 PM 48.7035 157.3763 232° Southwest  Level FlightAware Approximate
Tue 03:43:00 PM 48.6290 157.2344 232° Southwest  Level FlightAware Approximate
Tue 03:44:00 PM 48.5544 157.0928 231° Southwest  Level FlightAware Approximate
Tue 03:45:00 PM 48.4795 156.9517 231° Southwest  Level FlightAware Approximate
Tue 03:46:00 PM 48.4045 156.8110 231° Southwest  Level FlightAware Approximate
Tue 03:47:00 PM 48.3293 156.6707 231° Southwest  Level FlightAware Approximate
Tue 03:48:00 PM 48.2540 156.5309 231° Southwest  Level FlightAware Approximate
Tue 03:49:00 PM 48.1785 156.3914 231° Southwest  Level FlightAware Approximate
Tue 03:50:00 PM 48.1028 156.2524 231° Southwest  Level FlightAware Approximate
Tue 03:51:00 PM 48.0269 156.1138 231° Southwest  Level FlightAware Approximate
Tue 03:52:00 PM 47.9509 155.9756 231° Southwest  Level FlightAware Approximate
Tue 03:53:00 PM 47.8747 155.8377 231° Southwest  Level FlightAware Approximate
Tue 03:54:00 PM 47.7983 155.7003 230° Southwest  Level FlightAware Approximate
Tue 03:55:00 PM 47.7218 155.5633 230° Southwest  Level FlightAware Approximate
Tue 03:56:00 PM 47.6451 155.4267 230° Southwest  Level FlightAware Approximate
Tue 03:57:00 PM 47.5683 155.2905 230° Southwest  Level FlightAware Approximate
Tue 03:58:00 PM 47.4913 155.1547 230° Southwest  Level FlightAware Approximate
Tue 03:59:00 PM 47.4141 155.0193 230° Southwest  Level FlightAware Approximate
Tue 04:00:00 PM 47.3368 154.8843 230° Southwest  Level FlightAware Approximate
Tue 04:01:00 PM 47.2593 154.7496 230° Southwest  Level FlightAware Approximate
Tue 04:02:00 PM 47.1817 154.6154 230° Southwest  Level FlightAware Approximate
Tue 04:03:00 PM 47.1039 154.4816 230° Southwest  Level FlightAware Approximate
Tue 04:04:00 PM 47.0260 154.3481 229° Southwest  Level FlightAware Approximate
Tue 04:05:00 PM 46.9479 154.2151 229° Southwest  Level FlightAware Approximate
Tue 04:06:00 PM 46.8696 154.0824 229° Southwest  Level FlightAware Approximate
Tue 04:07:00 PM 46.7912 153.9502 229° Southwest  Level FlightAware Approximate
Tue 04:08:00 PM 46.7127 153.8183 229° Southwest  Level FlightAware Approximate
Tue 04:09:00 PM 46.6339 153.6868 229° Southwest  Level FlightAware Approximate
Tue 04:10:00 PM 46.5551 153.5556 229° Southwest  Level FlightAware Approximate
Tue 04:11:00 PM 46.4761 153.4249 229° Southwest  Level FlightAware Approximate
Tue 04:12:00 PM 46.3969 153.2946 229° Southwest  Level FlightAware Approximate
Tue 04:13:00 PM 46.3176 153.1646 229° Southwest  Level FlightAware Approximate
Tue 04:14:00 PM 46.2382 153.0349 228° Southwest  Level FlightAware Approximate
Tue 04:15:00 PM 46.1580 152.9064 228° Southwest  Level FlightAware Approximate
Tue 04:16:00 PM 46.0776 152.7785 228° Southwest  Level FlightAware Approximate
Tue 04:17:00 PM 45.9970 152.6509 228° Southwest  Level FlightAware Approximate
Tue 04:18:00 PM 45.9162 152.5237 228° Southwest  Level FlightAware Approximate
Tue 04:19:00 PM 45.8353 152.3969 228° Southwest  Level FlightAware Approximate
Tue 04:20:00 PM 45.7543 152.2705 227° Southwest  Level FlightAware Approximate
Tue 04:21:00 PM 45.6731 152.1444 227° Southwest  Level FlightAware Approximate
Tue 04:22:00 PM 45.5919 152.0187 227° Southwest  Level FlightAware Approximate
Tue 04:23:00 PM 45.5104 151.8934 227° Southwest  Level FlightAware Approximate
Tue 04:24:00 PM 45.4288 151.7684 227° Southwest  Level FlightAware Approximate
Tue 04:25:00 PM 45.3471 151.6438 227° Southwest  Level FlightAware Approximate
Tue 04:26:00 PM 45.2653 151.5195 227° Southwest  Level FlightAware Approximate
Tue 04:27:00 PM 45.1833 151.3956 227° Southwest  Level FlightAware Approximate
Tue 04:28:00 PM 45.1012 151.2720 227° Southwest  Level FlightAware Approximate
Tue 04:29:00 PM 45.0189 151.1488 227° Southwest  Level FlightAware Approximate
Tue 04:30:00 PM 44.9365 151.0260 227° Southwest  Level FlightAware Approximate
Tue 04:31:00 PM 44.8540 150.9035 226° Southwest  Level FlightAware Approximate
Tue 04:32:00 PM 44.7714 150.7814 226° Southwest  Level FlightAware Approximate
Tue 04:33:00 PM 44.6886 150.6596 226° Southwest  Level FlightAware Approximate
Tue 04:34:00 PM 44.6057 150.5381 226° Southwest  Level FlightAware Approximate
Tue 04:35:00 PM 44.5227 150.4171 226° Southwest  Level FlightAware Approximate
Tue 04:36:00 PM 44.4395 150.2963 226° Southwest  Level FlightAware Approximate
Tue 04:37:00 PM 44.3563 150.1759 226° Southwest  Level FlightAware Approximate
Tue 04:38:00 PM 44.2728 150.0558 226° Southwest  Level FlightAware Approximate
Tue 04:39:00 PM 44.1893 149.9361 226° Southwest  Level FlightAware Approximate
Tue 04:40:00 PM 44.1056 149.8167 226° Southwest  Level FlightAware Approximate
Tue 04:40:12 PM 43.3210 148.7220 226° Southwest 409 471 34,000  Level FlightAware ADS-B
Tue 04:40:57 PM 43.2570 148.6340 225° Southwest 409 471 34,000  Level FlightAware ADS-B
Tue 04:41:00 PM 44.0219 149.6977 226° Southwest  Level FlightAware Approximate
Tue 04:41:37 PM 43.2130 148.5750 224° Southwest 411 473 34,000  Level FlightAware ADS-B
Tue 04:42:22 PM 43.1430 148.4800 225° Southwest 412 474 34,000  Level FlightAware ADS-B
Tue 04:43:02 PM 43.0890 148.4060 225° Southwest 410 472 34,000  Level FlightAware ADS-B
Tue 04:43:37 PM 43.0380 148.3370 225° Southwest 410 472 34,000  Level FlightAware ADS-B
Tue 04:44:27 PM 42.9740 148.2510 225° Southwest 410 472 34,000  Level FlightAware ADS-B
Tue 04:45:07 PM 42.9200 148.1770 225° Southwest 409 471 34,000  Level FlightAware ADS-B
Tue 04:45:47 PM 42.8690 148.1100 224° Southwest 407 468 34,000  Level FlightAware ADS-B
Tue 04:46:27 PM 42.8160 148.0380 225° Southwest 405 466 34,000  Level FlightAware ADS-B
Tue 04:47:17 PM 42.7480 147.9490 224° Southwest 403 464 34,000  Level FlightAware ADS-B
Tue 04:47:57 PM 42.6900 147.8710 225° Southwest 403 464 34,000  Level FlightAware ADS-B
Tue 04:48:37 PM 42.6390 147.8020 225° Southwest 403 464 34,000  Level FlightAware ADS-B
Tue 04:49:22 PM 42.5790 147.7230 224° Southwest 401 461 34,000  Level FlightAware ADS-B
Tue 04:50:17 PM 42.5090 147.6320 224° Southwest 400 460 34,000  Level FlightAware ADS-B
Tue 04:50:57 PM 42.4550 147.5600 225° Southwest 400 460 34,000  Level FlightAware ADS-B
Tue 04:51:42 PM 42.3950 147.4820 224° Southwest 392 451 34,000  Level FlightAware ADS-B
Tue 04:52:22 PM 42.3420 147.4110 225° Southwest 393 452 34,000  Level FlightAware ADS-B
Tue 04:53:02 PM 42.2880 147.3410 224° Southwest 400 460 34,000  Level FlightAware ADS-B
Tue 04:53:42 PM 42.2320 147.2680 224° Southwest 402 463 34,000  Level FlightAware ADS-B
Tue 04:54:32 PM 42.1640 147.1790 224° Southwest 403 464 34,000  Level FlightAware ADS-B
Tue 04:55:32 PM 42.0880 147.0820 223° Southwest 404 465 34,000  Level FlightAware ADS-B
Tue 04:56:22 PM 42.0200 146.9940 224° Southwest 406 467 34,000  Level FlightAware ADS-B
Tue 04:57:02 PM 41.9630 146.9200 224° Southwest 408 470 34,000  Level FlightAware ADS-B
Tue 04:57:57 PM 41.8930 146.8290 224° Southwest 403 464 34,000  Level FlightAware ADS-B
Tue 04:58:42 PM 41.8300 146.7480 224° Southwest 404 465 34,000  Level FlightAware ADS-B
Tue 04:59:22 PM 41.7740 146.6760 224° Southwest 404 465 34,000  Level FlightAware ADS-B
Tue 05:00:07 PM 41.7130 146.5990 223° Southwest 404 465 34,000  Level FlightAware ADS-B
Tue 05:00:47 PM 41.6560 146.5270 223° Southwest 404 465 34,000  Level FlightAware ADS-B
Tue 05:01:27 PM 41.6010 146.4570 224° Southwest 405 466 34,000  Level FlightAware ADS-B
Tue 05:02:12 PM 41.5380 146.3770 224° Southwest 405 466 34,000  Level FlightAware ADS-B
Tue 05:02:47 PM 41.4950 146.3240 223° Southwest 406 467 34,000  Level FlightAware ADS-B
Tue 05:03:52 PM 41.4030 146.2080 223° Southwest 405 466 34,000  Level FlightAware ADS-B
Tue 05:04:32 PM 41.3470 146.1360 224° Southwest 405 466 34,000  Level FlightAware ADS-B
Tue 05:05:12 PM 41.2900 146.0650 223° Southwest 406 467 34,000  Level FlightAware ADS-B
Tue 05:05:57 PM 41.2240 145.9830 223° Southwest 408 470 34,000  Level FlightAware ADS-B
Tue 05:06:52 PM 41.1470 145.8880 223° Southwest 408 470 34,000  Level FlightAware ADS-B
Tue 05:07:37 PM 41.0890 145.8140 224° Southwest 416 479 34,000  Level FlightAware ADS-B
Tue 05:08:17 PM 41.0320 145.7450 222° Southwest 416 479 34,000  Level FlightAware ADS-B
Tue 05:08:57 PM 40.9750 145.6730 224° Southwest 416 479 34,000  Level FlightAware ADS-B
Tue 05:09:32 PM 40.9290 145.6180 222° Southwest 417 480 34,000  Level FlightAware ADS-B
Tue 05:10:22 PM 40.8540 145.5260 223° Southwest 418 481 34,000  Level FlightAware ADS-B
Tue 05:11:32 PM 40.7570 145.4060 223° Southwest 418 481 34,000  Level FlightAware ADS-B
Tue 05:12:22 PM 40.6910 145.3240 223° Southwest 418 481 34,000  Level FlightAware ADS-B
Tue 05:13:17 PM 40.6160 145.2360 222° Southwest 418 481 34,000  Level FlightAware ADS-B
Tue 05:14:42 PM 40.4850 145.0750 223° Southwest 415 478 34,000  Level FlightAware ADS-B
Tue 05:15:22 PM 40.4310 145.0110 222° Southwest 414 476 34,000  Level FlightAware ADS-B
Tue 05:16:12 PM 40.3780 144.9070 236° Southwest 400 460 34,000  Level FlightAware ADS-B
Tue 05:16:52 PM 40.3390 144.8240 238° Southwest 396 456 34,000  Level FlightAware ADS-B
Tue 05:17:37 PM 40.2950 144.7270 239° Southwest 398 458 34,000  Level FlightAware ADS-B
Tue 05:18:17 PM 40.2620 144.6580 238° Southwest 398 458 34,000  Level FlightAware ADS-B
Tue 05:19:02 PM 40.2170 144.5650 238° Southwest 398 458 34,000  Level FlightAware ADS-B
Tue 05:19:42 PM 40.1840 144.4950 238° Southwest 398 458 34,000  Level FlightAware ADS-B
Tue 05:20:22 PM 40.1510 144.4260 238° Southwest 398 458 34,000  Level FlightAware ADS-B
Tue 05:21:02 PM 40.1180 144.3560 238° Southwest 398 458 34,000  Level FlightAware ADS-B
Tue 05:21:42 PM 40.0850 144.2870 238° Southwest 398 458 34,000  Level FlightAware ADS-B
Tue 05:22:22 PM 40.0510 144.2170 238° Southwest 398 458 34,000  Level FlightAware ADS-B
Tue 05:23:12 PM 40.0100 144.1310 238° Southwest 398 458 34,000  Level FlightAware ADS-B
Tue 05:23:52 PM 39.9770 144.0620 238° Southwest 398 458 34,000  Level FlightAware ADS-B
Tue 05:24:32 PM 39.9440 143.9920 238° Southwest 398 458 34,000  Level FlightAware ADS-B
Tue 05:25:12 PM 39.9100 143.9230 237° Southwest 398 458 34,000  Level FlightAware ADS-B
Tue 05:25:52 PM 39.8770 143.8540 238° Southwest 398 458 34,000  Level FlightAware ADS-B
Tue 05:26:42 PM 39.8360 143.7670 238° Southwest 398 458 34,000  Level FlightAware ADS-B
Tue 05:27:22 PM 39.8030 143.6980 238° Southwest 398 458 34,000  Level FlightAware ADS-B
Tue 05:28:02 PM 39.7690 143.6290 237° Southwest 398 458 34,000  Level FlightAware ADS-B
Tue 05:30:00 PM 39.6425 143.3708 238° Southwest  Level FlightAware Approximate
Tue 05:31:00 PM 39.5780 143.2399 237° Southwest  Level FlightAware Approximate
Tue 05:31:52 PM 39.4670 143.0070 237° Southwest 34,000  Level FlightAware ADS-B
Tue 05:32:32 PM 39.4290 142.9300 237° Southwest 392 451 34,000  Level FlightAware ADS-B
Tue 05:33:07 PM 39.3960 142.8630 238° Southwest 394 453 34,000  Level FlightAware ADS-B
Tue 05:33:52 PM 39.3570 142.7860 237° Southwest 394 453 34,000  Level FlightAware ADS-B
Tue 05:34:37 PM 39.3020 142.6750 237° Southwest 392 451 34,000  Level FlightAware ADS-B
Tue 05:35:17 PM 39.2620 142.5950 237° Southwest 393 452 34,000  Level FlightAware ADS-B
Tue 05:36:02 PM 39.2150 142.5090 235° Southwest 396 456 34,000  Level FlightAware ADS-B
Tue 05:36:42 PM 39.1650 142.4340 229° Southwest 399 459 34,000  Level FlightAware ADS-B
Tue 05:37:27 PM 39.1110 142.3530 229° Southwest 398 458 34,000  Level FlightAware ADS-B
Tue 05:38:07 PM 39.0610 142.2790 229° Southwest 399 459 34,000  Level FlightAware ADS-B
Tue 05:38:47 PM 39.0170 142.2020 234° Southwest 397 457 34,000  Level FlightAware ADS-B
Tue 05:39:32 PM 38.9800 142.1080 243° Southwest 395 455 34,000  Level FlightAware ADS-B
Tue 05:40:12 PM 38.9500 142.0230 246° West 395 455 34,000  Level FlightAware ADS-B
Tue 05:40:52 PM 38.9200 141.9370 246° West 394 453 34,000  Level FlightAware ADS-B
Tue 05:41:37 PM 38.8860 141.8410 246° West 393 452 34,000  Level FlightAware ADS-B
Tue 05:42:37 PM 38.8420 141.7180 245° Southwest 392 451 34,000  Level FlightAware ADS-B
Tue 05:45:00 PM 38.6289 141.4747 222° Southwest  Level FlightAware Approximate
Tue 05:46:00 PM 38.5393 141.3730 222° Southwest  Level FlightAware Approximate
Tue 05:47:00 PM 38.4496 141.2716 222° Southwest  Level FlightAware Approximate
Tue 05:48:00 PM 38.3599 141.1705 221° Southwest  Level FlightAware Approximate
Tue 05:49:00 PM 38.2701 141.0696 221° Southwest  Level FlightAware Approximate
Tue 05:50:00 PM 38.1801 140.9689 221° Southwest  Level FlightAware Approximate
Tue 05:50:12 PM 38.4980 140.7580 221° Southwest 401 461 34,000  Level FlightAware ADS-B
Tue 05:50:57 PM 38.4610 140.6580 245° Southwest 402 463 34,000  Level FlightAware ADS-B
Tue 05:51:52 PM 38.4170 140.5420 244° Southwest 405 466 34,000  Level FlightAware ADS-B
Tue 05:52:27 PM 38.3900 140.4710 244° Southwest 405 466 34,000  Level FlightAware ADS-B
Tue 05:53:17 PM 38.3480 140.3590 244° Southwest 405 466 34,000  Level FlightAware ADS-B
Tue 05:53:52 PM 38.3200 140.2840 245° Southwest 405 466 34,000  Level FlightAware ADS-B
Tue 05:54:37 PM 38.2850 140.1920 244° Southwest 403 464 34,000  Level FlightAware ADS-B
Tue 05:55:22 PM 38.2480 140.0940 244° Southwest 403 464 34,000  Level FlightAware ADS-B
Tue 05:55:57 PM 38.2210 140.0260 243° Southwest 403 464 34,000  Level FlightAware ADS-B
Tue 05:56:47 PM 38.1740 139.9030 244° Southwest 410 472 34,000  Level FlightAware ADS-B
Tue 05:57:27 PM 38.1410 139.8170 244° Southwest 407 468 34,000  Level FlightAware ADS-B
Tue 05:58:12 PM 38.1030 139.7200 244° Southwest 408 470 34,000  Level FlightAware ADS-B
Tue 06:00:00 PM 38.0390 139.4586 253° West  Level FlightAware Approximate
Tue 06:00:27 PM 37.9910 139.4310 253° West 402 463 34,000  Level FlightAware ADS-B
Tue 06:01:52 PM 37.9220 139.2560 243° Southwest 402 463 34,000  Level FlightAware ADS-B
Tue 06:02:37 PM 37.8850 139.1610 244° Southwest 401 461 34,000  Level FlightAware ADS-B
Tue 06:03:22 PM 37.8480 139.0670 244° Southwest 401 461 34,000  Level FlightAware ADS-B
Tue 06:04:02 PM 37.8150 138.9830 244° Southwest 401 461 34,000  Level FlightAware ADS-B
Tue 06:04:47 PM 37.7770 138.8870 243° Southwest 401 461 34,000  Level FlightAware ADS-B
Tue 06:05:27 PM 37.7440 138.8050 243° Southwest 401 461 34,000  Level FlightAware ADS-B
Tue 06:06:07 PM 37.7100 138.7190 243° Southwest 402 463 34,000  Level FlightAware ADS-B
Tue 06:06:52 PM 37.6720 138.6240 243° Southwest 402 463 34,000  Level FlightAware ADS-B
Tue 06:07:32 PM 37.6380 138.5410 243° Southwest 402 463 34,000  Level FlightAware ADS-B
Tue 06:08:17 PM 37.6000 138.4470 243° Southwest 402 463 34,000  Level FlightAware ADS-B
Tue 06:08:57 PM 37.5670 138.3630 244° Southwest 401 461 34,000  Level FlightAware ADS-B
Tue 06:09:37 PM 37.5330 138.2800 243° Southwest 400 460 34,000  Level FlightAware ADS-B
Tue 06:10:22 PM 37.4950 138.1860 243° Southwest 400 460 34,000  Level FlightAware ADS-B
Tue 06:10:57 PM 37.4660 138.1140 243° Southwest 399 459 34,000  Level FlightAware ADS-B
Tue 06:11:47 PM 37.4240 138.0100 243° Southwest 397 457 34,000  Level FlightAware ADS-B
Tue 06:12:27 PM 37.3890 137.9240 243° Southwest 394 453 34,000  Level FlightAware ADS-B
Tue 06:13:07 PM 37.3560 137.8440 243° Southwest 395 455 34,000  Level FlightAware ADS-B
Tue 06:13:52 PM 37.3180 137.7510 243° Southwest 398 458 34,000  Level FlightAware ADS-B
Tue 06:14:32 PM 37.2830 137.6670 242° Southwest 396 456 34,000  Level FlightAware ADS-B
Tue 06:15:12 PM 37.2490 137.5860 242° Southwest 394 453 34,000  Level FlightAware ADS-B
Tue 06:15:57 PM 37.2110 137.4960 242° Southwest 394 453 34,000  Level FlightAware ADS-B
Tue 06:16:37 PM 37.1800 137.4180 244° Southwest 394 453 34,000  Level FlightAware ADS-B
Tue 06:17:22 PM 37.1400 137.3240 242° Southwest 393 452 34,000  Level FlightAware ADS-B
Tue 06:18:02 PM 37.1060 137.2420 243° Southwest 393 452 34,000  Level FlightAware ADS-B
Tue 06:18:47 PM 37.0710 137.1590 242° Southwest 390 449 34,000  Level FlightAware ADS-B
Tue 06:19:27 PM 37.0380 137.0800 242° Southwest 392 451 34,000  Level FlightAware ADS-B
Tue 06:20:07 PM 37.0040 136.9980 243° Southwest 390 449 34,000  Level FlightAware ADS-B
Tue 06:20:52 PM 36.9660 136.9090 242° Southwest 390 449 34,000  Level FlightAware ADS-B
Tue 06:21:32 PM 36.9320 136.8290 242° Southwest 392 451 34,000  Level FlightAware ADS-B
Tue 06:22:12 PM 36.8980 136.7480 242° Southwest 395 455 34,000  Level FlightAware ADS-B
Tue 06:22:57 PM 36.8600 136.6580 242° Southwest 393 452 34,000  Level FlightAware ADS-B
Tue 06:23:37 PM 36.8270 136.5820 242° Southwest 391 450 34,000  Level FlightAware ADS-B
Tue 06:24:17 PM 36.7920 136.4990 242° Southwest 389 448 34,000  Level FlightAware ADS-B
Tue 06:24:52 PM 36.7640 136.4340 242° Southwest 387 445 34,000  Level FlightAware ADS-B
Tue 06:25:42 PM 36.7180 136.3280 242° Southwest 385 443 34,000  Level FlightAware ADS-B
Tue 06:26:27 PM 36.6810 136.2420 242° Southwest 385 443 34,000  Level FlightAware ADS-B
Tue 06:27:07 PM 36.6470 136.1640 242° Southwest 384 442 34,000  Level FlightAware ADS-B
Tue 06:27:47 PM 36.6150 136.0880 242° Southwest 381 438 34,000  Level FlightAware ADS-B
Tue 06:28:32 PM 36.5770 136.0020 241° Southwest 379 436 34,000  Level FlightAware ADS-B
Tue 06:29:12 PM 36.5440 135.9250 242° Southwest 378 435 34,000  Level FlightAware ADS-B
Tue 06:29:47 PM 36.5140 135.8570 241° Southwest 378 435 34,000  Level FlightAware ADS-B
Tue 06:30:27 PM 36.4810 135.7820 241° Southwest 378 435 34,000  Level FlightAware ADS-B
Tue 06:31:17 PM 36.4390 135.6870 241° Southwest 378 435 34,000  Level FlightAware ADS-B
Tue 06:31:52 PM 36.4110 135.6240 241° Southwest 379 436 34,000  Level FlightAware ADS-B
Tue 06:32:42 PM 36.3680 135.5240 242° Southwest 379 436 34,000  Level FlightAware ADS-B
Tue 06:33:22 PM 36.3390 135.4450 246° West 376 433 34,000  Level FlightAware ADS-B
Tue 06:34:32 PM 36.3200 135.2970 261° West 376 433 34,000  Level FlightAware ADS-B
Tue 06:35:07 PM 36.3130 135.2260 263° West 375 432 34,000  Level FlightAware ADS-B
Tue 06:36:02 PM 36.3020 135.1040 264° West 376 433 34,000  Level FlightAware ADS-B
Tue 06:36:42 PM 36.2950 135.0180 264° West 377 434 34,000  Level FlightAware ADS-B
Tue 06:37:27 PM 36.2860 134.9300 263° West 378 435 34,000  Level FlightAware ADS-B
Tue 06:38:02 PM 36.2790 134.8480 264° West 379 436 34,000  Level FlightAware ADS-B
Tue 06:39:02 PM 36.2670 134.7170 264° West 380 437 34,000  Level FlightAware ADS-B
Tue 06:39:47 PM 36.2580 134.6190 264° West 381 438 34,000  Level FlightAware ADS-B
Tue 06:40:17 PM 36.2510 134.5540 262° West 381 438 34,000  Level FlightAware ADS-B
Tue 06:41:07 PM 36.2410 134.4460 263° West 382 440 34,000  Level FlightAware ADS-B
Tue 06:41:52 PM 36.2320 134.3480 264° West 383 441 34,000  Level FlightAware ADS-B
Tue 06:42:22 PM 36.2260 134.2860 263° West 384 442 34,000  Level FlightAware ADS-B
Tue 06:43:17 PM 36.2130 134.1600 263° West 384 442 34,000  Level FlightAware ADS-B
Tue 06:43:52 PM 36.2060 134.0850 263° West 384 442 34,000  Level FlightAware ADS-B
Tue 06:45:02 PM 36.1910 133.9370 263° West 383 441 34,000  Level FlightAware ADS-B
Tue 06:45:57 PM 36.1790 133.8200 263° West 381 438 34,000  Level FlightAware ADS-B
Tue 06:46:52 PM 36.1670 133.7010 263° West 379 436 34,000  Level FlightAware ADS-B
Tue 06:47:37 PM 36.1560 133.5970 263° West 380 437 34,000  Level FlightAware ADS-B
Tue 06:48:32 PM 36.1450 133.4850 263° West 381 438 34,000  Level FlightAware ADS-B
Tue 06:49:27 PM 36.1320 133.3660 262° West 381 438 34,000  Level FlightAware ADS-B
Tue 06:50:17 PM 36.1200 133.2550 262° West 381 438 34,000  Level FlightAware ADS-B
Tue 06:50:57 PM 36.1120 133.1810 262° West 381 438 34,000  Level FlightAware ADS-B
Tue 06:51:52 PM 36.0980 133.0520 262° West 381 438 34,000  Level FlightAware ADS-B
Tue 06:52:32 PM 36.0900 132.9780 262° West 381 438 34,000  Level FlightAware ADS-B
Tue 06:53:12 PM 36.0820 132.9050 262° West 381 438 34,000  Level FlightAware ADS-B
Tue 06:53:52 PM 36.0730 132.8310 261° West 381 438 34,000  Level FlightAware ADS-B
Tue 06:54:42 PM 36.0630 132.7400 262° West 381 438 34,000  Level FlightAware ADS-B
Tue 06:55:22 PM 36.0550 132.6660 262° West 381 438 34,000  Level FlightAware ADS-B
Tue 06:56:02 PM 36.0460 132.5930 261° West 381 438 34,000 -358 Level FlightAware ADS-B
Tue 06:58:00 PM 36.1183 132.3157 288° West  Level Estimated
Tue 06:59:00 PM 36.1548 132.1745 288° West  Level Estimated
Tue 07:00:00 PM 36.1911 132.0331 288° West  Level Estimated
Tue 07:01:00 PM 36.2273 131.8917 288° West  Level Estimated
Tue 07:02:00 PM 36.2633 131.7501 288° West  Level Estimated
Tue 07:03:00 PM 36.2991 131.6083 287° West  Level Estimated
Tue 07:04:00 PM 36.3348 131.4665 287° West  Level Estimated
Tue 07:05:00 PM 36.3703 131.3245 287° West  Level Estimated
Tue 07:06:00 PM 36.4056 131.1824 287° West  Level Estimated
Tue 07:07:00 PM 36.4408 131.0401 287° West  Level Estimated
Tue 07:08:00 PM 36.4757 130.8977 287° West  Level Estimated
Tue 07:09:00 PM 36.5106 130.7552 287° West  Level Estimated
Tue 07:10:00 PM 36.5452 130.6126 287° West  Level Estimated
Tue 07:11:00 PM 36.5797 130.4698 287° West  Level Estimated
Tue 07:12:00 PM 36.6140 130.3270 287° West  Level Estimated
Tue 07:13:00 PM 36.6481 130.1839 287° West  Level Estimated
Tue 07:14:00 PM 36.6821 130.0408 287° West  Level Estimated
Tue 07:15:00 PM 36.7159 129.8975 286° West  Level Estimated
Tue 07:16:00 PM 36.7495 129.7541 286° West  Level Estimated
Tue 07:17:00 PM 36.7830 129.6106 286° West  Level Estimated
Tue 07:18:00 PM 36.8163 129.4670 286° West  Level Estimated
Tue 07:19:00 PM 36.8494 129.3232 286° West  Level Estimated
Tue 07:20:00 PM 36.8823 129.1793 286° West  Level Estimated
Tue 07:21:00 PM 36.9151 129.0353 286° West  Level Estimated
Tue 07:22:00 PM 36.9477 128.8912 286° West  Level Estimated
Tue 07:23:00 PM 36.9801 128.7469 286° West  Level Estimated
Tue 07:24:00 PM 37.0123 128.6025 286° West  Level Estimated
Tue 07:25:00 PM 37.0444 128.4580 286° West  Level Estimated
Tue 07:26:00 PM 37.0763 128.3134 285° West  Level Estimated
Tue 07:27:00 PM 37.1080 128.1686 285° West  Level Estimated
Tue 07:28:00 PM 37.1396 128.0238 285° West  Level Estimated
Tue 07:29:00 PM 37.1709 127.8788 285° West  Level Estimated
Tue 07:30:00 PM 37.2021 127.7337 285° West  Level Estimated
Tue 07:31:00 PM 37.2331 127.5884 285° West  Level Estimated
Tue 07:32:00 PM 37.2640 127.4431 285° West  Level Estimated
Tue 07:33:00 PM 37.2946 127.2976 285° West  Level Estimated
Tue 07:33:37 PM 36.9670 127.7350 285° West 343 395 20,300  Level FlightAware ADS-B
Tue 07:34:00 PM 37.3251 127.1520 285° West  Level Estimated
Tue 07:34:17 PM 37.0000 127.6720 303° West 315 362 19,200  Level FlightAware ADS-B
Tue 07:35:17 PM 37.0230 127.5770 287° West 307 353 17,500 -1,800 Descending FlightAware ADS-B
Tue 07:35:57 PM 37.0360 127.5040 283° West 307 353 16,200 -1,875 Descending FlightAware ADS-B
Tue 07:36:37 PM 37.0480 127.4350 282° West 303 349 15,000 -1,765 Descending FlightAware ADS-B
Tue 07:37:22 PM 37.0610 127.3630 283° West 299 344 13,700 -1,835 Descending FlightAware ADS-B
Tue 07:38:02 PM 37.0740 127.2900 283° West 295 339 12,400 -1,694 Descending FlightAware ADS-B
Tue 07:38:47 PM 37.0860 127.2200 282° West 291 335 11,300 -1,533 Descending FlightAware ADS-B
Tue 07:39:32 PM 37.0990 127.1430 282° West 280 322 10,100 -1,371 Descending FlightAware ADS-B
Tue 07:39:57 PM 37.1070 127.1010 283° West 268 308 9,700 -1,091 Descending FlightAware ADS-B
Tue 07:40:27 PM 37.1140 127.0580 282° West 263 303 9,100 -1,200 Descending FlightAware ADS-B
Tue 07:40:42 PM 37.1170 127.0400 282° West 263 303 8,800 -360 Descending FlightAware ADS-B
Tue 07:41:17 PM 37.1240 126.9920 280° West 263 303 8,800 -1,015 Level FlightAware ADS-B
Tue 07:41:47 PM 37.1350 126.9370 284° West 252 290 7,700 -1,440 Descending FlightAware ADS-B
Tue 07:42:07 PM 37.1390 126.9130 282° West 245 282 7,600 -232 Descending FlightAware ADS-B
Tue 07:43:52 PM 37.1620 126.7810 282° West 7,100 -222 Descending FlightAware ADS-B
Tue 07:44:22 PM 37.1690 126.7400 282° West 215 247 7,100  Level FlightAware ADS-B
Tue 07:44:57 PM 37.1760 126.6980 282° West 217 250 7,100 -918 Level FlightAware ADS-B
Tue 07:45:47 PM 37.2240 126.6690 334° Northwest 194 223 5,800 -1,360 Descending FlightAware ADS-B
Tue 07:46:12 PM 37.2400 126.6570 329° Northwest 179 206 5,400 -982 Descending FlightAware ADS-B
Tue 07:46:42 PM 37.2630 126.6360 324° Northwest 177 204 4,900 -1,000 Descending FlightAware ADS-B
Tue 07:47:12 PM 37.2840 126.6180 326° Northwest 175 201 4,400 -982 Descending FlightAware ADS-B
Tue 07:47:37 PM 37.2980 126.6060 326° Northwest 177 204 4,000 -480 Descending FlightAware ADS-B
Tue 07:48:02 PM 37.3140 126.5910 323° Northwest 177 204 4,000  Level FlightAware ADS-B
Tue 07:50:00 PM 37.4691 126.4505 293° West  Level Estimated
Tue 07:51:00 PM 37.4691 126.4505 293° West  Level Estimated
Tue 07:52:00 PM 37.4691 126.4505 293° West  Level Estimated
Tue 07:53:00 PM 37.4691 126.4505 293° West  Level Estimated
Tue 07:54:00 PM 37.4691 126.4505 293° West  Level Estimated
Tue 07:55:00 PM 37.4691 126.4505 293° West  Level Estimated
Tue 07:56:00 PM 37.4691 126.4505 293° West  Level Estimated
Tue 07:57:00 PM 37.4691 126.4505 293° West  Level Estimated
Tue 07:58:00 PM 37.4691 126.4505 293° West  Level Estimated
Tue 07:59:00 PM 37.4691 126.4505 293° West  Level Estimated
Tue 08:00:00 PM 37.4691 126.4505 293° West  Level Estimated
Tue 08:01:00 PM 37.4691 126.4505 293° West  Level Estimated
Tue 08:02:00 PM 37.4691 126.4505 293° West  Level Estimated

Login

Don't have an account? Register now (free) for customized features, flight alerts, and more!